Terminal Aerodrome Forecast
Issued by NWS

Home | Current Version | Previous Version | Graphics & Text | Print | Product List | Glossary On
Versions: 1 2 3 4 5 6 7 8 9 10 11 12 13 14 15 16 17 18 19 20 21 22 23 24
000
FTUS43 KICT 202334
TAFHUT
TAF
KHUT 202334Z 2100/2124 18011KT P6SM OVC018
     FM210700 17008KT 4SM BR OVC012
     FM210900 17008KT 2SM BR OVC006
     FM211500 17010KT 5SM BR BKN007=

USA.gov is the U.S. government's official web portal to all federal, state and local government web resources and services.